Time;durP1;ratioP1;P1;durP2;ratioP2;P2;SDS_P1;SDS_P2;PMS_P1;PMS_P2;Temp;Humidity;BMP_temperature;BMP_pressure;BME280_temperature;BME280_humidity;BME280_pressure;Samples;Min_cycle;Max_cycle;Signal;HPM_P1;HPM_P2
2022/11/18 08:59:37;;;;;;;2.63;1.20;;;7.00;99.90;;;;;;5134434;27;20476;-83
2022/11/18 09:02:02;;;;;;;3.00;1.93;;;7.40;99.90;;;;;;5136471;28;20269;-82
2022/11/18 09:04:28;;;;;;;0.90;0.90;;;7.60;99.90;;;;;;5135013;27;20175;-82
2022/11/18 09:06:54;;;;;;;1.27;1.17;;;8.10;99.90;;;;;;5132500;28;20193;-82
2022/11/18 09:09:19;;;;;;;3.17;2.53;;;8.30;99.90;;;;;;5134224;27;20636;-83
2022/11/18 09:11:45;;;;;;;1.07;0.90;;;8.20;99.90;;;;;;5134647;27;20186;-82
2022/11/18 09:14:11;;;;;;;2.60;2.10;;;8.10;99.90;;;;;;5133624;27;20262;-81
2022/11/18 09:16:37;;;;;;;0.90;0.90;;;8.10;99.90;;;;;;5134140;27;20195;-82
2022/11/18 09:19:03;;;;;;;1.00;0.90;;;8.00;99.90;;;;;;5132958;27;20202;-79
2022/11/18 09:21:29;;;;;;;0.70;0.70;;;8.30;99.90;;;;;;5134933;27;20250;-82
2022/11/18 09:23:55;;;;;;;2.10;0.73;;;8.30;99.90;;;;;;5134142;28;20655;-82
2022/11/18 09:26:22;;;;;;;1.23;0.90;;;7.90;99.90;;;;;;5132495;28;20194;-82
2022/11/18 09:28:51;;;;;;;0.93;0.83;;;7.70;99.90;;;;;;5133090;28;20652;-81
2022/11/18 09:31:17;;;;;;;1.97;1.40;;;7.50;99.90;;;;;;5134316;27;20175;-81
2022/11/18 09:33:43;;;;;;;2.10;1.17;;;7.40;99.90;;;;;;5133727;28;20195;-80
2022/11/18 09:36:15;;;;;;;1.73;1.37;;;7.40;99.90;;;;;;5134931;27;20202;-82
2022/11/18 09:38:41;;;;;;;2.27;1.57;;;7.40;99.90;;;;;;5135085;27;20203;-81
2022/11/18 09:41:29;;;;;;;1.40;1.30;;;7.30;99.90;;;;;;5133277;28;20179;-80
2022/11/18 09:44:09;;;;;;;0.80;0.80;;;7.30;99.90;;;;;;5134653;28;20225;-81
2022/11/18 09:47:03;;;;;;;1.33;1.23;;;7.30;99.90;;;;;;5133765;28;20541;-81
2022/11/18 09:49:35;;;;;;;4.83;3.07;;;7.30;99.90;;;;;;5135879;27;20872;-81
2022/11/18 09:52:22;;;;;;;1.23;1.10;;;7.20;99.90;;;;;;5134283;28;20179;-81
2022/11/18 09:54:49;;;;;;;2.80;2.00;;;7.30;99.90;;;;;;5127039;28;20218;-82
2022/11/18 09:57:39;;;;;;;12.20;6.30;;;7.30;99.90;;;;;;5133425;28;20601;-80
2022/11/18 10:00:23;;;;;;;2.53;1.97;;;7.20;99.90;;;;;;5134605;28;20194;-82
2022/11/18 10:03:11;;;;;;;5.27;3.10;;;7.20;99.90;;;;;;5115789;28;20172;-82
2022/11/18 10:05:46;;;;;;;10.27;5.80;;;7.00;99.90;;;;;;5124821;28;20198;-80
2022/11/18 10:08:35;;;;;;;18.47;10.10;;;6.90;99.90;;;;;;5135733;27;20571;-82
2022/11/18 10:11:12;;;;;;;5.37;3.17;;;6.80;99.90;;;;;;5091419;28;20184;-81
2022/11/18 10:13:53;;;;;;;13.27;5.97;;;6.80;99.90;;;;;;5119075;28;20222;-80
2022/11/18 10:16:59;;;;;;;1.50;1.37;;;6.80;99.90;;;;;;5117664;28;20213;-80
2022/11/18 10:19:32;;;;;;;1.40;1.30;;;6.80;99.90;;;;;;5118889;28;20186;-82
2022/11/18 10:22:29;;;;;;;0.80;0.80;;;6.80;99.90;;;;;;5119951;28;20183;-81
2022/11/18 10:24:57;;;;;;;1.33;1.20;;;6.70;99.90;;;;;;5105536;28;20213;-81
2022/11/18 10:27:32;;;;;;;1.50;1.40;;;6.70;99.90;;;;;;5119633;28;20207;-81
2022/11/18 10:30:00;;;;;;;1.63;1.20;;;6.60;99.90;;;;;;5122041;28;20201;-81
2022/11/18 10:32:25;;;;;;;0.83;0.83;;;6.70;99.90;;;;;;5123959;28;20629;-82
2022/11/18 10:34:54;;;;;;;1.20;0.90;;;6.80;99.90;;;;;;5123191;28;20261;-82
2022/11/18 10:37:37;;;;;;;0.90;0.90;;;6.80;99.90;;;;;;5125623;28;20274;-81
2022/11/18 10:40:05;;;;;;;1.87;1.00;;;6.90;99.90;;;;;;5117785;28;20210;-80
2022/11/18 10:42:47;;;;;;;2.83;1.90;;;7.00;99.90;;;;;;5117442;28;20257;-81
2022/11/18 10:45:22;;;;;;;1.20;1.03;;;7.10;99.90;;;;;;5118920;28;20195;-82
2022/11/18 10:48:15;;;;;;;1.30;1.20;;;7.20;99.90;;;;;;5119580;28;20186;-80
2022/11/18 10:50:43;;;;;;;3.80;1.03;;;7.20;99.90;;;;;;5098483;28;20533;-81
2022/11/18 10:53:31;;;;;;;0.90;0.90;;;7.30;99.90;;;;;;5099412;28;20583;-81
2022/11/18 10:55:59;;;;;;;1.07;0.90;;;7.40;99.90;;;;;;5098177;28;20199;-80
2022/11/18 10:58:26;;;;;;;1.00;1.00;;;7.60;99.90;;;;;;5099097;28;20589;-80
2022/11/18 11:00:51;;;;;;;1.57;1.37;;;7.50;99.90;;;;;;5098725;28;20290;-80
2022/11/18 11:03:20;;;;;;;2.27;1.63;;;7.50;99.90;;;;;;5100497;28;20184;-84
2022/11/18 11:05:45;;;;;;;1.20;1.10;;;7.40;99.90;;;;;;5100120;28;20228;-85
2022/11/18 11:08:22;;;;;;;2.53;1.50;;;7.30;99.90;;;;;;5099899;28;20184;-83
2022/11/18 11:10:55;;;;;;;3.33;1.83;;;7.30;99.90;;;;;;5100799;28;20240;-80
2022/11/18 11:13:26;;;;;;;7.97;5.10;;;7.30;99.90;;;;;;5100924;28;20192;-81
2022/11/18 11:15:56;;;;;;;17.90;10.73;;;7.30;99.90;;;;;;5100227;28;20188;-81
2022/11/18 11:18:41;;;;;;;12.47;8.33;;;7.30;99.90;;;;;;5098822;28;20184;-80
2022/11/18 11:21:21;;;;;;;2.00;1.90;;;7.40;99.90;;;;;;5098287;28;20155;-80
2022/11/18 11:23:48;;;;;;;12.53;6.87;;;7.30;99.90;;;;;;5100445;28;20171;-82
2022/11/18 11:26:38;;;;;;;2.77;2.17;;;7.50;99.90;;;;;;5122388;28;20191;-82
2022/11/18 11:29:18;;;;;;;4.10;3.00;;;7.60;99.90;;;;;;5124919;28;20171;-82
2022/11/18 11:32:09;;;;;;;4.00;3.00;;;7.70;99.90;;;;;;5123439;28;20269;-81
2022/11/18 11:34:34;;;;;;;2.50;1.00;;;7.90;99.90;;;;;;5122716;28;20175;-81
2022/11/18 11:37:12;;;;;;;1.83;1.67;;;7.90;99.90;;;;;;5125457;28;20171;-82
2022/11/18 11:39:59;;;;;;;1.27;1.17;;;7.90;99.90;;;;;;5125188;28;20610;-81
2022/11/18 11:42:41;;;;;;;0.80;0.80;;;7.90;99.90;;;;;;5123868;28;20242;-81
2022/11/18 11:45:21;;;;;;;0.80;0.80;;;7.80;99.90;;;;;;5123417;27;20191;-79
2022/11/18 11:47:59;;;;;;;1.27;1.00;;;7.70;99.90;;;;;;5124600;28;20160;-81
2022/11/18 11:50:32;;;;;;;0.80;0.80;;;7.50;99.90;;;;;;5124400;28;20621;-80
2022/11/18 11:53:16;;;;;;;1.10;1.00;;;7.50;99.90;;;;;;5123372;28;20182;-82
2022/11/18 11:56:03;;;;;;;2.13;1.77;;;7.50;99.90;;;;;;5124740;28;20191;-81
2022/11/18 11:58:50;;;;;;;1.10;1.00;;;7.50;99.90;;;;;;5122557;28;20302;-79
2022/11/18 12:01:43;;;;;;;0.93;0.87;;;7.50;99.90;;;;;;5122460;28;20175;-81
2022/11/18 12:04:14;;;;;;;1.20;1.10;;;7.40;99.90;;;;;;5122149;28;20178;-80
2022/11/18 12:06:44;;;;;;;1.37;1.00;;;7.30;99.90;;;;;;5122788;28;20251;-83
2022/11/18 12:09:31;;;;;;;8.80;4.37;;;7.30;99.90;;;;;;5125174;28;20168;-80
2022/11/18 12:12:35;;;;;;;7.37;3.57;;;7.20;99.90;;;;;;5122882;28;20200;-81
2022/11/18 12:15:24;;;;;;;1.70;1.60;;;7.20;99.90;;;;;;5120154;28;20256;-81
2022/11/18 12:17:56;;;;;;;1.57;1.47;;;7.20;99.90;;;;;;5122415;28;20263;-80
2022/11/18 12:20:42;;;;;;;2.00;1.77;;;7.20;99.90;;;;;;5122329;28;20875;-81
2022/11/18 12:23:11;;;;;;;1.83;1.73;;;7.10;99.90;;;;;;5122637;28;20172;-82
2022/11/18 12:25:52;;;;;;;1.73;1.63;;;7.10;99.90;;;;;;5123453;28;20195;-82
2022/11/18 12:28:25;;;;;;;4.97;3.90;;;7.10;99.90;;;;;;5122409;28;20177;-82
2022/11/18 12:31:17;;;;;;;1.30;1.20;;;7.10;99.90;;;;;;5123603;28;20179;-83
2022/11/18 12:33:52;;;;;;;1.70;1.50;;;7.20;99.90;;;;;;5122455;28;20247;-80
2022/11/18 12:36:34;;;;;;;1.73;1.63;;;7.20;99.90;;;;;;5124284;28;20190;-84
2022/11/18 12:39:24;;;;;;;1.20;0.90;;;7.30;99.90;;;;;;5124303;28;20192;-82
2022/11/18 12:44:47;;;;;;;1.77;1.63;;;7.40;99.90;;;;;;5127390;28;20198;-82
2022/11/18 12:47:41;;;;;;;2.87;1.17;;;7.40;99.90;;;;;;5123172;28;20198;-82
2022/11/18 12:50:13;;;;;;;1.23;1.13;;;7.40;99.90;;;;;;5122978;28;20266;-82
2022/11/18 12:52:38;;;;;;;3.00;1.80;;;7.30;99.90;;;;;;5123653;28;20169;-82
2022/11/18 12:55:15;;;;;;;1.73;1.60;;;7.20;99.90;;;;;;5123046;28;20195;-81
2022/11/18 12:57:43;;;;;;;2.37;1.97;;;7.20;99.90;;;;;;5123380;28;20195;-81
2022/11/18 13:00:29;;;;;;;2.80;2.10;;;7.10;99.90;;;;;;5122267;28;20567;-82
2022/11/18 13:03:00;;;;;;;1.87;1.70;;;7.20;99.90;;;;;;5121375;28;20172;-81
2022/11/18 13:05:29;;;;;;;4.43;2.60;;;7.20;99.90;;;;;;5125839;28;20187;-83
2022/11/18 13:08:12;;;;;;;2.60;2.17;;;7.30;99.90;;;;;;5123064;28;20177;-79
2022/11/18 13:19:33;;;;;;;4.20;2.40;;;7.20;99.90;;;;;;5118210;28;20204;-82
2022/11/18 13:24:47;;;;;;;14.00;8.87;;;7.10;99.90;;;;;;5125645;28;20573;-82
2022/11/18 13:27:38;;;;;;;7.07;5.03;;;7.10;99.90;;;;;;5125947;28;20227;-82
2022/11/18 13:30:10;;;;;;;4.70;3.07;;;7.00;99.90;;;;;;5123710;28;20240;-80
2022/11/18 13:32:41;;;;;;;7.40;4.23;;;7.00;99.90;;;;;;5122797;28;20177;-80
2022/11/18 13:35:13;;;;;;;6.23;4.13;;;6.90;99.90;;;;;;5124990;28;20273;-82
2022/11/18 13:37:49;;;;;;;4.87;2.50;;;6.80;99.90;;;;;;5122496;28;20203;-81
2022/11/18 13:40:25;;;;;;;7.63;4.83;;;6.80;99.90;;;;;;5124866;28;20195;-82
2022/11/18 13:42:51;;;;;;;7.83;5.00;;;6.80;99.90;;;;;;5124956;28;20185;-81
2022/11/18 13:45:17;;;;;;;6.23;3.87;;;6.70;99.90;;;;;;5127370;28;20194;-82
2022/11/18 13:47:51;;;;;;;8.30;5.60;;;6.50;99.90;;;;;;5127404;28;20175;-82
2022/11/18 13:50:36;;;;;;;12.00;8.47;;;6.40;99.90;;;;;;5127313;28;20182;-82
2022/11/18 13:53:10;;;;;;;21.50;13.33;;;6.20;99.90;;;;;;5127802;28;20185;-81
2022/11/18 13:55:43;;;;;;;19.80;11.67;;;6.10;99.90;;;;;;5127226;28;20207;-81
2022/11/18 14:20:16;;;;;;;2.27;1.70;;;6.60;99.90;;;;;;5129917;27;20362;-82
2022/11/18 14:22:42;;;;;;;3.43;1.50;;;6.60;99.90;;;;;;5129075;28;20555;-81
